sensor_id;sensor_type;location;lat;lon;timestamp;P1;durP1;ratioP1;P2;durP2;ratioP2
11141;SDS011;5625;50.122;19.864;2023-04-10T00:00:48;35.97;;;29.80;;
11141;SDS011;5625;50.122;19.864;2023-04-10T00:03:22;38.53;;;29.80;;
11141;SDS011;5625;50.122;19.864;2023-04-10T00:05:52;37.43;;;30.27;;
11141;SDS011;5625;50.122;19.864;2023-04-10T00:08:20;38.40;;;31.33;;
11141;SDS011;5625;50.122;19.864;2023-04-10T00:10:48;38.80;;;30.73;;
11141;SDS011;5625;50.122;19.864;2023-04-10T00:13:16;38.83;;;31.03;;
11141;SDS011;5625;50.122;19.864;2023-04-10T00:15:44;38.70;;;30.73;;
11141;SDS011;5625;50.122;19.864;2023-04-10T00:18:14;37.63;;;29.87;;
11141;SDS011;5625;50.122;19.864;2023-04-10T00:20:42;36.47;;;29.97;;
11141;SDS011;5625;50.122;19.864;2023-04-10T00:23:12;35.30;;;28.97;;
11141;SDS011;5625;50.122;19.864;2023-04-10T00:25:40;38.90;;;31.83;;
11141;SDS011;5625;50.122;19.864;2023-04-10T00:28:08;38.30;;;30.03;;
11141;SDS011;5625;50.122;19.864;2023-04-10T00:30:36;37.50;;;30.53;;
11141;SDS011;5625;50.122;19.864;2023-04-10T00:33:04;37.67;;;30.80;;
11141;SDS011;5625;50.122;19.864;2023-04-10T00:35:32;40.83;;;32.33;;
11141;SDS011;5625;50.122;19.864;2023-04-10T00:38:00;38.53;;;31.77;;
11141;SDS011;5625;50.122;19.864;2023-04-10T00:40:30;40.40;;;31.97;;
11141;SDS011;5625;50.122;19.864;2023-04-10T00:42:59;38.97;;;31.00;;
11141;SDS011;5625;50.122;19.864;2023-04-10T00:45:28;38.77;;;31.60;;
11141;SDS011;5625;50.122;19.864;2023-04-10T00:47:57;37.83;;;31.27;;
11141;SDS011;5625;50.122;19.864;2023-04-10T00:50:25;39.03;;;32.00;;
11141;SDS011;5625;50.122;19.864;2023-04-10T00:52:53;39.07;;;31.33;;
11141;SDS011;5625;50.122;19.864;2023-04-10T00:55:22;39.07;;;31.57;;
11141;SDS011;5625;50.122;19.864;2023-04-10T00:57:51;39.57;;;31.87;;
11141;SDS011;5625;50.122;19.864;2023-04-10T01:00:22;40.17;;;33.53;;
11141;SDS011;5625;50.122;19.864;2023-04-10T01:02:50;41.93;;;33.13;;
11141;SDS011;5625;50.122;19.864;2023-04-10T01:05:18;40.60;;;32.93;;
11141;SDS011;5625;50.122;19.864;2023-04-10T01:07:50;42.63;;;32.87;;
11141;SDS011;5625;50.122;19.864;2023-04-10T01:10:28;40.27;;;32.63;;
11141;SDS011;5625;50.122;19.864;2023-04-10T01:13:07;40.07;;;32.00;;
11141;SDS011;5625;50.122;19.864;2023-04-10T01:15:43;37.03;;;30.07;;
11141;SDS011;5625;50.122;19.864;2023-04-10T01:18:18;36.07;;;29.67;;
11141;SDS011;5625;50.122;19.864;2023-04-10T01:20:53;36.47;;;29.23;;
11141;SDS011;5625;50.122;19.864;2023-04-10T01:23:28;36.00;;;28.27;;
11141;SDS011;5625;50.122;19.864;2023-04-10T01:26:31;35.53;;;28.93;;
11141;SDS011;5625;50.122;19.864;2023-04-10T01:29:09;37.17;;;30.87;;
11141;SDS011;5625;50.122;19.864;2023-04-10T01:31:44;38.87;;;31.87;;
11141;SDS011;5625;50.122;19.864;2023-04-10T01:34:19;40.10;;;31.70;;
11141;SDS011;5625;50.122;19.864;2023-04-10T01:36:50;39.20;;;30.87;;
11141;SDS011;5625;50.122;19.864;2023-04-10T01:39:22;42.87;;;33.67;;
11141;SDS011;5625;50.122;19.864;2023-04-10T01:41:51;41.17;;;32.60;;
11141;SDS011;5625;50.122;19.864;2023-04-10T01:44:23;40.43;;;31.60;;
11141;SDS011;5625;50.122;19.864;2023-04-10T01:46:54;43.23;;;33.90;;
11141;SDS011;5625;50.122;19.864;2023-04-10T01:49:24;43.93;;;35.30;;
11141;SDS011;5625;50.122;19.864;2023-04-10T01:51:54;40.77;;;33.93;;
11141;SDS011;5625;50.122;19.864;2023-04-10T01:54:27;41.23;;;32.50;;
11141;SDS011;5625;50.122;19.864;2023-04-10T01:56:58;41.40;;;34.83;;
11141;SDS011;5625;50.122;19.864;2023-04-10T01:59:28;43.87;;;33.93;;
11141;SDS011;5625;50.122;19.864;2023-04-10T02:01:56;44.60;;;34.23;;
11141;SDS011;5625;50.122;19.864;2023-04-10T02:04:26;44.00;;;34.67;;
11141;SDS011;5625;50.122;19.864;2023-04-10T02:06:56;44.43;;;34.40;;
11141;SDS011;5625;50.122;19.864;2023-04-10T02:09:32;43.93;;;35.17;;
11141;SDS011;5625;50.122;19.864;2023-04-10T02:12:08;45.60;;;34.77;;
11141;SDS011;5625;50.122;19.864;2023-04-10T02:14:41;45.33;;;37.53;;
11141;SDS011;5625;50.122;19.864;2023-04-10T02:17:15;46.83;;;37.13;;
11141;SDS011;5625;50.122;19.864;2023-04-10T02:19:47;48.07;;;37.50;;
11141;SDS011;5625;50.122;19.864;2023-04-10T02:22:17;45.80;;;36.27;;
11141;SDS011;5625;50.122;19.864;2023-04-10T02:24:45;48.87;;;37.73;;
11141;SDS011;5625;50.122;19.864;2023-04-10T02:27:21;50.00;;;38.13;;
11141;SDS011;5625;50.122;19.864;2023-04-10T02:29:55;47.83;;;38.23;;
11141;SDS011;5625;50.122;19.864;2023-04-10T02:32:23;50.80;;;39.37;;
11141;SDS011;5625;50.122;19.864;2023-04-10T02:34:51;51.30;;;36.47;;
11141;SDS011;5625;50.122;19.864;2023-04-10T02:37:19;48.93;;;36.87;;
11141;SDS011;5625;50.122;19.864;2023-04-10T02:39:48;50.67;;;38.23;;
11141;SDS011;5625;50.122;19.864;2023-04-10T02:42:16;51.37;;;37.63;;
11141;SDS011;5625;50.122;19.864;2023-04-10T02:44:44;56.30;;;38.53;;
11141;SDS011;5625;50.122;19.864;2023-04-10T02:47:15;53.33;;;37.60;;
11141;SDS011;5625;50.122;19.864;2023-04-10T02:49:44;57.93;;;40.33;;
11141;SDS011;5625;50.122;19.864;2023-04-10T02:52:16;59.27;;;41.77;;
11141;SDS011;5625;50.122;19.864;2023-04-10T02:54:44;61.43;;;41.63;;
11141;SDS011;5625;50.122;19.864;2023-04-10T02:57:12;65.70;;;43.63;;
11141;SDS011;5625;50.122;19.864;2023-04-10T02:59:40;61.13;;;40.90;;
11141;SDS011;5625;50.122;19.864;2023-04-10T03:02:08;64.13;;;40.53;;
11141;SDS011;5625;50.122;19.864;2023-04-10T03:04:38;63.57;;;42.17;;
11141;SDS011;5625;50.122;19.864;2023-04-10T03:07:06;66.60;;;42.23;;
11141;SDS011;5625;50.122;19.864;2023-04-10T03:09:35;68.33;;;43.10;;
11141;SDS011;5625;50.122;19.864;2023-04-10T03:12:03;67.97;;;43.37;;
11141;SDS011;5625;50.122;19.864;2023-04-10T03:14:32;70.93;;;43.87;;
11141;SDS011;5625;50.122;19.864;2023-04-10T03:17:00;70.57;;;43.97;;
11141;SDS011;5625;50.122;19.864;2023-04-10T03:19:28;70.60;;;45.20;;
11141;SDS011;5625;50.122;19.864;2023-04-10T03:21:58;79.10;;;46.70;;
11141;SDS011;5625;50.122;19.864;2023-04-10T03:24:26;75.90;;;45.10;;
11141;SDS011;5625;50.122;19.864;2023-04-10T03:26:54;76.53;;;45.90;;
11141;SDS011;5625;50.122;19.864;2023-04-10T03:29:22;75.47;;;45.03;;
11141;SDS011;5625;50.122;19.864;2023-04-10T03:31:51;72.93;;;44.63;;
11141;SDS011;5625;50.122;19.864;2023-04-10T03:34:19;83.90;;;45.70;;
11141;SDS011;5625;50.122;19.864;2023-04-10T03:36:47;74.33;;;44.40;;
11141;SDS011;5625;50.122;19.864;2023-04-10T03:39:16;74.60;;;45.77;;
11141;SDS011;5625;50.122;19.864;2023-04-10T03:41:44;76.47;;;46.50;;
11141;SDS011;5625;50.122;19.864;2023-04-10T03:44:12;78.90;;;44.80;;
11141;SDS011;5625;50.122;19.864;2023-04-10T03:46:40;78.87;;;45.50;;
11141;SDS011;5625;50.122;19.864;2023-04-10T03:49:09;71.37;;;44.53;;
11141;SDS011;5625;50.122;19.864;2023-04-10T03:51:37;74.47;;;45.40;;
11141;SDS011;5625;50.122;19.864;2023-04-10T03:54:05;82.10;;;45.20;;
11141;SDS011;5625;50.122;19.864;2023-04-10T03:56:34;78.37;;;45.20;;
11141;SDS011;5625;50.122;19.864;2023-04-10T03:59:02;72.37;;;43.60;;
11141;SDS011;5625;50.122;19.864;2023-04-10T04:01:30;80.80;;;44.97;;
11141;SDS011;5625;50.122;19.864;2023-04-10T04:04:00;83.40;;;46.40;;
11141;SDS011;5625;50.122;19.864;2023-04-10T04:06:28;88.20;;;47.50;;
11141;SDS011;5625;50.122;19.864;2023-04-10T04:08:56;84.73;;;45.70;;
11141;SDS011;5625;50.122;19.864;2023-04-10T04:11:24;88.07;;;47.63;;
11141;SDS011;5625;50.122;19.864;2023-04-10T04:13:54;94.10;;;48.30;;
11141;SDS011;5625;50.122;19.864;2023-04-10T04:16:22;91.33;;;48.30;;
11141;SDS011;5625;50.122;19.864;2023-04-10T04:18:50;96.47;;;50.03;;
11141;SDS011;5625;50.122;19.864;2023-04-10T04:21:18;92.37;;;47.80;;
11141;SDS011;5625;50.122;19.864;2023-04-10T04:23:46;92.83;;;47.43;;
11141;SDS011;5625;50.122;19.864;2023-04-10T04:26:14;94.90;;;47.67;;
11141;SDS011;5625;50.122;19.864;2023-04-10T04:28:42;96.13;;;49.67;;
11141;SDS011;5625;50.122;19.864;2023-04-10T04:31:11;92.70;;;48.67;;
11141;SDS011;5625;50.122;19.864;2023-04-10T04:33:39;93.63;;;47.40;;
11141;SDS011;5625;50.122;19.864;2023-04-10T04:36:07;93.83;;;50.30;;
11141;SDS011;5625;50.122;19.864;2023-04-10T04:38:35;97.63;;;49.20;;
11141;SDS011;5625;50.122;19.864;2023-04-10T04:41:04;107.47;;;52.27;;
11141;SDS011;5625;50.122;19.864;2023-04-10T04:43:32;110.20;;;52.60;;
11141;SDS011;5625;50.122;19.864;2023-04-10T04:46:00;107.67;;;50.87;;
11141;SDS011;5625;50.122;19.864;2023-04-10T04:48:29;106.60;;;50.87;;
11141;SDS011;5625;50.122;19.864;2023-04-10T04:50:57;109.77;;;50.40;;
11141;SDS011;5625;50.122;19.864;2023-04-10T04:53:25;104.97;;;51.53;;
11141;SDS011;5625;50.122;19.864;2023-04-10T04:55:53;107.43;;;51.27;;
11141;SDS011;5625;50.122;19.864;2023-04-10T04:58:21;105.47;;;51.33;;
11141;SDS011;5625;50.122;19.864;2023-04-10T05:00:50;103.03;;;50.50;;
11141;SDS011;5625;50.122;19.864;2023-04-10T05:03:18;107.63;;;51.03;;
11141;SDS011;5625;50.122;19.864;2023-04-10T05:05:47;109.50;;;50.30;;
11141;SDS011;5625;50.122;19.864;2023-04-10T05:08:16;116.97;;;52.70;;
11141;SDS011;5625;50.122;19.864;2023-04-10T05:10:44;117.73;;;53.07;;
11141;SDS011;5625;50.122;19.864;2023-04-10T05:13:14;115.47;;;52.97;;
11141;SDS011;5625;50.122;19.864;2023-04-10T05:15:42;112.17;;;52.27;;
11141;SDS011;5625;50.122;19.864;2023-04-10T05:18:11;112.60;;;52.73;;
11141;SDS011;5625;50.122;19.864;2023-04-10T05:20:39;118.13;;;54.43;;
11141;SDS011;5625;50.122;19.864;2023-04-10T05:23:08;97.43;;;48.57;;
11141;SDS011;5625;50.122;19.864;2023-04-10T05:25:36;108.90;;;49.63;;
11141;SDS011;5625;50.122;19.864;2023-04-10T05:28:04;115.53;;;52.20;;
11141;SDS011;5625;50.122;19.864;2023-04-10T05:30:32;118.17;;;54.60;;
11141;SDS011;5625;50.122;19.864;2023-04-10T05:33:00;107.53;;;50.07;;
11141;SDS011;5625;50.122;19.864;2023-04-10T05:35:29;100.73;;;49.50;;
11141;SDS011;5625;50.122;19.864;2023-04-10T05:37:57;107.77;;;49.67;;
11141;SDS011;5625;50.122;19.864;2023-04-10T05:40:27;100.47;;;46.73;;
11141;SDS011;5625;50.122;19.864;2023-04-10T05:42:55;94.03;;;47.83;;
11141;SDS011;5625;50.122;19.864;2023-04-10T05:45:23;97.00;;;47.37;;
11141;SDS011;5625;50.122;19.864;2023-04-10T05:47:53;99.97;;;45.23;;
11141;SDS011;5625;50.122;19.864;2023-04-10T05:50:21;115.80;;;47.43;;
11141;SDS011;5625;50.122;19.864;2023-04-10T05:52:49;105.77;;;46.57;;
11141;SDS011;5625;50.122;19.864;2023-04-10T05:55:17;100.67;;;46.63;;
11141;SDS011;5625;50.122;19.864;2023-04-10T05:57:47;107.17;;;47.07;;
11141;SDS011;5625;50.122;19.864;2023-04-10T06:00:16;111.33;;;47.23;;
11141;SDS011;5625;50.122;19.864;2023-04-10T06:02:45;103.30;;;46.87;;
11141;SDS011;5625;50.122;19.864;2023-04-10T06:05:13;99.40;;;46.47;;
11141;SDS011;5625;50.122;19.864;2023-04-10T06:07:41;110.33;;;47.93;;
11141;SDS011;5625;50.122;19.864;2023-04-10T06:10:09;102.73;;;47.60;;
11141;SDS011;5625;50.122;19.864;2023-04-10T06:12:37;105.70;;;47.87;;
11141;SDS011;5625;50.122;19.864;2023-04-10T06:15:07;105.70;;;47.23;;
11141;SDS011;5625;50.122;19.864;2023-04-10T06:17:40;100.37;;;46.67;;
11141;SDS011;5625;50.122;19.864;2023-04-10T06:20:09;105.77;;;46.73;;
11141;SDS011;5625;50.122;19.864;2023-04-10T06:22:38;92.90;;;46.33;;
11141;SDS011;5625;50.122;19.864;2023-04-10T06:25:08;94.83;;;46.00;;
11141;SDS011;5625;50.122;19.864;2023-04-10T06:27:36;94.70;;;45.33;;
11141;SDS011;5625;50.122;19.864;2023-04-10T06:30:05;80.57;;;42.37;;
11141;SDS011;5625;50.122;19.864;2023-04-10T06:32:35;89.10;;;43.97;;
11141;SDS011;5625;50.122;19.864;2023-04-10T06:35:04;86.57;;;44.93;;
11141;SDS011;5625;50.122;19.864;2023-04-10T06:37:34;80.90;;;42.67;;
11141;SDS011;5625;50.122;19.864;2023-04-10T06:40:05;76.37;;;42.37;;
11141;SDS011;5625;50.122;19.864;2023-04-10T06:42:34;77.53;;;40.57;;
11141;SDS011;5625;50.122;19.864;2023-04-10T06:45:03;73.67;;;40.80;;
11141;SDS011;5625;50.122;19.864;2023-04-10T06:47:33;71.33;;;41.10;;
11141;SDS011;5625;50.122;19.864;2023-04-10T06:50:01;73.47;;;39.73;;
11141;SDS011;5625;50.122;19.864;2023-04-10T06:52:30;69.43;;;39.17;;
11141;SDS011;5625;50.122;19.864;2023-04-10T06:54:58;70.97;;;38.50;;
11141;SDS011;5625;50.122;19.864;2023-04-10T06:57:29;70.77;;;39.50;;
11141;SDS011;5625;50.122;19.864;2023-04-10T06:59:57;65.43;;;37.10;;
11141;SDS011;5625;50.122;19.864;2023-04-10T07:02:25;71.37;;;40.13;;
11141;SDS011;5625;50.122;19.864;2023-04-10T07:04:54;63.53;;;38.07;;
11141;SDS011;5625;50.122;19.864;2023-04-10T07:07:22;62.20;;;37.40;;
11141;SDS011;5625;50.122;19.864;2023-04-10T07:09:50;64.13;;;38.30;;
11141;SDS011;5625;50.122;19.864;2023-04-10T07:12:20;64.20;;;39.90;;
11141;SDS011;5625;50.122;19.864;2023-04-10T07:14:48;65.30;;;37.30;;
11141;SDS011;5625;50.122;19.864;2023-04-10T07:17:16;60.07;;;37.17;;
11141;SDS011;5625;50.122;19.864;2023-04-10T07:19:44;60.73;;;36.77;;
11141;SDS011;5625;50.122;19.864;2023-04-10T07:22:14;57.33;;;35.47;;
11141;SDS011;5625;50.122;19.864;2023-04-10T07:24:42;59.60;;;36.10;;
11141;SDS011;5625;50.122;19.864;2023-04-10T07:27:10;58.53;;;37.53;;
11141;SDS011;5625;50.122;19.864;2023-04-10T07:29:38;55.70;;;34.73;;
11141;SDS011;5625;50.122;19.864;2023-04-10T07:32:06;49.90;;;33.67;;
11141;SDS011;5625;50.122;19.864;2023-04-10T07:34:37;56.97;;;36.50;;
11141;SDS011;5625;50.122;19.864;2023-04-10T07:37:07;55.13;;;35.23;;
11141;SDS011;5625;50.122;19.864;2023-04-10T07:39:39;54.80;;;36.57;;
11141;SDS011;5625;50.122;19.864;2023-04-10T07:42:09;65.40;;;42.07;;
11141;SDS011;5625;50.122;19.864;2023-04-10T07:44:37;56.10;;;37.10;;
11141;SDS011;5625;50.122;19.864;2023-04-10T07:47:08;57.17;;;38.00;;
11141;SDS011;5625;50.122;19.864;2023-04-10T07:49:36;56.93;;;36.73;;
11141;SDS011;5625;50.122;19.864;2023-04-10T07:52:04;54.70;;;36.47;;
11141;SDS011;5625;50.122;19.864;2023-04-10T07:54:32;57.67;;;36.50;;
11141;SDS011;5625;50.122;19.864;2023-04-10T07:57:02;58.77;;;37.97;;
11141;SDS011;5625;50.122;19.864;2023-04-10T07:59:30;60.00;;;38.57;;
11141;SDS011;5625;50.122;19.864;2023-04-10T08:01:59;59.20;;;38.23;;
11141;SDS011;5625;50.122;19.864;2023-04-10T08:04:30;57.00;;;36.60;;
11141;SDS011;5625;50.122;19.864;2023-04-10T08:06:59;54.60;;;35.63;;
11141;SDS011;5625;50.122;19.864;2023-04-10T08:09:27;53.83;;;36.33;;
11141;SDS011;5625;50.122;19.864;2023-04-10T08:11:58;58.53;;;35.93;;
11141;SDS011;5625;50.122;19.864;2023-04-10T08:14:28;56.27;;;38.10;;
11141;SDS011;5625;50.122;19.864;2023-04-10T08:16:56;53.70;;;34.57;;
11141;SDS011;5625;50.122;19.864;2023-04-10T08:19:24;55.77;;;36.07;;
11141;SDS011;5625;50.122;19.864;2023-04-10T08:21:53;53.13;;;34.93;;
11141;SDS011;5625;50.122;19.864;2023-04-10T08:24:21;51.80;;;33.77;;
11141;SDS011;5625;50.122;19.864;2023-04-10T08:26:49;54.47;;;36.80;;
11141;SDS011;5625;50.122;19.864;2023-04-10T08:29:17;54.73;;;35.83;;
11141;SDS011;5625;50.122;19.864;2023-04-10T08:31:47;55.30;;;36.30;;
11141;SDS011;5625;50.122;19.864;2023-04-10T08:34:15;54.97;;;35.17;;
11141;SDS011;5625;50.122;19.864;2023-04-10T08:36:43;53.33;;;35.83;;
11141;SDS011;5625;50.122;19.864;2023-04-10T08:39:11;51.27;;;34.43;;
11141;SDS011;5625;50.122;19.864;2023-04-10T08:41:39;53.33;;;35.43;;
11141;SDS011;5625;50.122;19.864;2023-04-10T08:44:08;54.40;;;36.57;;
11141;SDS011;5625;50.122;19.864;2023-04-10T08:46:36;49.27;;;33.90;;
11141;SDS011;5625;50.122;19.864;2023-04-10T08:49:14;52.77;;;34.10;;
11141;SDS011;5625;50.122;19.864;2023-04-10T08:51:50;53.93;;;35.10;;
11141;SDS011;5625;50.122;19.864;2023-04-10T08:54:24;48.23;;;32.93;;
11141;SDS011;5625;50.122;19.864;2023-04-10T08:56:54;47.03;;;33.10;;
11141;SDS011;5625;50.122;19.864;2023-04-10T08:59:26;48.10;;;32.63;;
11141;SDS011;5625;50.122;19.864;2023-04-10T09:01:56;49.30;;;34.00;;
11141;SDS011;5625;50.122;19.864;2023-04-10T09:04:26;49.23;;;34.97;;
11141;SDS011;5625;50.122;19.864;2023-04-10T09:06:55;45.63;;;33.20;;
11141;SDS011;5625;50.122;19.864;2023-04-10T09:09:23;43.37;;;31.40;;
11141;SDS011;5625;50.122;19.864;2023-04-10T09:11:55;45.87;;;31.37;;
11141;SDS011;5625;50.122;19.864;2023-04-10T09:14:27;44.40;;;30.43;;
11141;SDS011;5625;50.122;19.864;2023-04-10T09:17:10;40.87;;;27.93;;
11141;SDS011;5625;50.122;19.864;2023-04-10T09:19:50;33.57;;;25.63;;
11141;SDS011;5625;50.122;19.864;2023-04-10T09:22:27;31.70;;;23.30;;
11141;SDS011;5625;50.122;19.864;2023-04-10T09:24:57;28.70;;;22.53;;
11141;SDS011;5625;50.122;19.864;2023-04-10T09:27:29;27.93;;;20.90;;
11141;SDS011;5625;50.122;19.864;2023-04-10T09:29:58;26.93;;;21.53;;
11141;SDS011;5625;50.122;19.864;2023-04-10T09:35:15;35.77;;;25.77;;
11141;SDS011;5625;50.122;19.864;2023-04-10T09:37:44;28.67;;;22.07;;
11141;SDS011;5625;50.122;19.864;2023-04-10T09:40:18;27.37;;;21.27;;
11141;SDS011;5625;50.122;19.864;2023-04-10T09:42:49;25.90;;;20.53;;
11141;SDS011;5625;50.122;19.864;2023-04-10T09:45:17;25.37;;;19.90;;
11141;SDS011;5625;50.122;19.864;2023-04-10T09:47:59;24.03;;;19.63;;
11141;SDS011;5625;50.122;19.864;2023-04-10T09:50:34;25.37;;;20.37;;
11141;SDS011;5625;50.122;19.864;2023-04-10T09:53:05;23.90;;;19.03;;
11141;SDS011;5625;50.122;19.864;2023-04-10T09:55:34;23.63;;;19.70;;
11141;SDS011;5625;50.122;19.864;2023-04-10T09:58:03;24.90;;;19.00;;
11141;SDS011;5625;50.122;19.864;2023-04-10T10:00:32;21.37;;;18.20;;
11141;SDS011;5625;50.122;19.864;2023-04-10T10:03:08;23.30;;;18.87;;
11141;SDS011;5625;50.122;19.864;2023-04-10T10:05:40;26.10;;;20.10;;
11141;SDS011;5625;50.122;19.864;2023-04-10T10:08:10;23.47;;;19.50;;
11141;SDS011;5625;50.122;19.864;2023-04-10T10:10:39;27.23;;;20.13;;
11141;SDS011;5625;50.122;19.864;2023-04-10T10:13:14;25.80;;;19.47;;
11141;SDS011;5625;50.122;19.864;2023-04-10T10:15:45;23.57;;;19.80;;
11141;SDS011;5625;50.122;19.864;2023-04-10T10:18:19;26.03;;;20.97;;
11141;SDS011;5625;50.122;19.864;2023-04-10T10:20:53;25.23;;;20.03;;
11141;SDS011;5625;50.122;19.864;2023-04-10T10:23:22;21.93;;;19.13;;
11141;SDS011;5625;50.122;19.864;2023-04-10T10:25:51;23.53;;;18.70;;
11141;SDS011;5625;50.122;19.864;2023-04-10T10:28:21;20.93;;;18.27;;
11141;SDS011;5625;50.122;19.864;2023-04-10T10:30:50;24.13;;;18.97;;
11141;SDS011;5625;50.122;19.864;2023-04-10T10:33:19;24.30;;;17.47;;
11141;SDS011;5625;50.122;19.864;2023-04-10T10:35:49;22.40;;;17.57;;
11141;SDS011;5625;50.122;19.864;2023-04-10T10:38:20;19.30;;;16.30;;
11141;SDS011;5625;50.122;19.864;2023-04-10T10:40:50;19.80;;;15.40;;
11141;SDS011;5625;50.122;19.864;2023-04-10T10:43:31;21.10;;;16.37;;
11141;SDS011;5625;50.122;19.864;2023-04-10T10:46:06;20.40;;;15.33;;
11141;SDS011;5625;50.122;19.864;2023-04-10T10:48:38;17.57;;;15.67;;
11141;SDS011;5625;50.122;19.864;2023-04-10T10:51:06;18.53;;;16.53;;
11141;SDS011;5625;50.122;19.864;2023-04-10T10:53:36;20.47;;;16.20;;
11141;SDS011;5625;50.122;19.864;2023-04-10T10:59:02;22.77;;;17.93;;
11141;SDS011;5625;50.122;19.864;2023-04-10T11:01:30;30.00;;;23.30;;
11141;SDS011;5625;50.122;19.864;2023-04-10T11:03:58;30.57;;;23.87;;
11141;SDS011;5625;50.122;19.864;2023-04-10T11:12:15;41.30;;;30.13;;
11141;SDS011;5625;50.122;19.864;2023-04-10T11:14:55;42.97;;;31.03;;
11141;SDS011;5625;50.122;19.864;2023-04-10T11:20:17;42.73;;;30.77;;
11141;SDS011;5625;50.122;19.864;2023-04-10T11:23:06;38.17;;;28.97;;
11141;SDS011;5625;50.122;19.864;2023-04-10T11:25:46;37.63;;;29.17;;
11141;SDS011;5625;50.122;19.864;2023-04-10T11:28:34;36.37;;;28.50;;
11141;SDS011;5625;50.122;19.864;2023-04-10T11:31:13;36.97;;;27.83;;
11141;SDS011;5625;50.122;19.864;2023-04-10T11:33:49;36.27;;;26.13;;
11141;SDS011;5625;50.122;19.864;2023-04-10T11:36:28;30.23;;;23.83;;
11141;SDS011;5625;50.122;19.864;2023-04-10T11:38:57;27.10;;;22.07;;
11141;SDS011;5625;50.122;19.864;2023-04-10T11:41:28;26.33;;;21.13;;
11141;SDS011;5625;50.122;19.864;2023-04-10T11:43:58;27.70;;;21.73;;
11141;SDS011;5625;50.122;19.864;2023-04-10T11:46:27;27.47;;;20.53;;
11141;SDS011;5625;50.122;19.864;2023-04-10T11:48:57;25.07;;;20.27;;
11141;SDS011;5625;50.122;19.864;2023-04-10T11:51:27;32.67;;;26.63;;
11141;SDS011;5625;50.122;19.864;2023-04-10T11:54:06;33.97;;;25.97;;
11141;SDS011;5625;50.122;19.864;2023-04-10T11:56:36;46.83;;;32.90;;
11141;SDS011;5625;50.122;19.864;2023-04-10T11:59:07;42.97;;;29.63;;
11141;SDS011;5625;50.122;19.864;2023-04-10T12:01:36;45.60;;;31.03;;
11141;SDS011;5625;50.122;19.864;2023-04-10T12:04:18;38.67;;;30.57;;
11141;SDS011;5625;50.122;19.864;2023-04-10T12:06:47;40.70;;;28.70;;
11141;SDS011;5625;50.122;19.864;2023-04-10T12:09:18;38.43;;;29.07;;
11141;SDS011;5625;50.122;19.864;2023-04-10T12:11:49;42.70;;;30.30;;
11141;SDS011;5625;50.122;19.864;2023-04-10T12:14:18;51.53;;;35.20;;
11141;SDS011;5625;50.122;19.864;2023-04-10T12:16:47;51.87;;;36.20;;
11141;SDS011;5625;50.122;19.864;2023-04-10T12:19:20;51.60;;;34.97;;
11141;SDS011;5625;50.122;19.864;2023-04-10T12:21:49;49.77;;;35.10;;
11141;SDS011;5625;50.122;19.864;2023-04-10T12:27:15;50.30;;;34.17;;
11141;SDS011;5625;50.122;19.864;2023-04-10T12:29:44;56.90;;;36.83;;
11141;SDS011;5625;50.122;19.864;2023-04-10T12:32:12;50.40;;;35.27;;
11141;SDS011;5625;50.122;19.864;2023-04-10T12:34:41;50.37;;;34.37;;
11141;SDS011;5625;50.122;19.864;2023-04-10T12:37:15;46.90;;;33.10;;
11141;SDS011;5625;50.122;19.864;2023-04-10T12:39:45;47.37;;;33.67;;
11141;SDS011;5625;50.122;19.864;2023-04-10T12:42:14;44.13;;;31.70;;
11141;SDS011;5625;50.122;19.864;2023-04-10T12:44:49;47.23;;;32.30;;
11141;SDS011;5625;50.122;19.864;2023-04-10T12:47:20;52.33;;;36.13;;
11141;SDS011;5625;50.122;19.864;2023-04-10T12:50:02;46.97;;;33.50;;
11141;SDS011;5625;50.122;19.864;2023-04-10T12:52:31;49.57;;;33.83;;
11141;SDS011;5625;50.122;19.864;2023-04-10T12:55:12;46.53;;;32.07;;
11141;SDS011;5625;50.122;19.864;2023-04-10T12:57:44;42.07;;;30.87;;
11141;SDS011;5625;50.122;19.864;2023-04-10T13:00:14;43.70;;;32.10;;
11141;SDS011;5625;50.122;19.864;2023-04-10T13:02:43;40.03;;;30.00;;
11141;SDS011;5625;50.122;19.864;2023-04-10T13:05:12;40.97;;;29.90;;
11141;SDS011;5625;50.122;19.864;2023-04-10T13:07:41;43.53;;;29.70;;
11141;SDS011;5625;50.122;19.864;2023-04-10T13:10:09;43.13;;;31.67;;
11141;SDS011;5625;50.122;19.864;2023-04-10T13:12:37;37.87;;;27.87;;
11141;SDS011;5625;50.122;19.864;2023-04-10T13:15:08;45.07;;;32.13;;
11141;SDS011;5625;50.122;19.864;2023-04-10T13:17:37;39.03;;;29.57;;
11141;SDS011;5625;50.122;19.864;2023-04-10T13:20:07;38.43;;;28.13;;
11141;SDS011;5625;50.122;19.864;2023-04-10T13:22:38;37.80;;;25.73;;
11141;SDS011;5625;50.122;19.864;2023-04-10T13:25:10;34.47;;;24.37;;
11141;SDS011;5625;50.122;19.864;2023-04-10T13:27:38;34.33;;;25.57;;
11141;SDS011;5625;50.122;19.864;2023-04-10T13:30:06;32.53;;;22.17;;
11141;SDS011;5625;50.122;19.864;2023-04-10T13:32:36;30.93;;;22.67;;
11141;SDS011;5625;50.122;19.864;2023-04-10T13:35:06;28.43;;;21.60;;
11141;SDS011;5625;50.122;19.864;2023-04-10T13:37:36;28.20;;;21.60;;
11141;SDS011;5625;50.122;19.864;2023-04-10T13:40:05;21.83;;;17.57;;
11141;SDS011;5625;50.122;19.864;2023-04-10T13:42:34;18.50;;;15.10;;
11141;SDS011;5625;50.122;19.864;2023-04-10T13:45:06;14.23;;;11.00;;
11141;SDS011;5625;50.122;19.864;2023-04-10T13:47:36;18.03;;;14.60;;
11141;SDS011;5625;50.122;19.864;2023-04-10T13:50:05;39.57;;;29.13;;
11141;SDS011;5625;50.122;19.864;2023-04-10T13:52:33;36.23;;;27.90;;
11141;SDS011;5625;50.122;19.864;2023-04-10T13:55:01;36.23;;;28.27;;
11141;SDS011;5625;50.122;19.864;2023-04-10T13:57:30;32.93;;;25.23;;
11141;SDS011;5625;50.122;19.864;2023-04-10T14:00:00;15.93;;;13.17;;
11141;SDS011;5625;50.122;19.864;2023-04-10T14:02:34;16.97;;;12.53;;
11141;SDS011;5625;50.122;19.864;2023-04-10T14:05:03;27.30;;;18.93;;
11141;SDS011;5625;50.122;19.864;2023-04-10T14:07:31;27.40;;;21.97;;
11141;SDS011;5625;50.122;19.864;2023-04-10T14:09:59;29.13;;;21.40;;
11141;SDS011;5625;50.122;19.864;2023-04-10T14:12:28;24.73;;;17.87;;
11141;SDS011;5625;50.122;19.864;2023-04-10T14:14:56;15.47;;;12.20;;
11141;SDS011;5625;50.122;19.864;2023-04-10T14:17:25;11.67;;;9.97;;
11141;SDS011;5625;50.122;19.864;2023-04-10T14:19:54;13.03;;;9.10;;
11141;SDS011;5625;50.122;19.864;2023-04-10T14:22:22;11.57;;;9.70;;
11141;SDS011;5625;50.122;19.864;2023-04-10T14:24:50;11.67;;;8.97;;
11141;SDS011;5625;50.122;19.864;2023-04-10T14:27:34;13.30;;;10.43;;
11141;SDS011;5625;50.122;19.864;2023-04-10T14:30:03;13.77;;;10.87;;
11141;SDS011;5625;50.122;19.864;2023-04-10T14:32:32;14.47;;;10.00;;
11141;SDS011;5625;50.122;19.864;2023-04-10T14:35:01;16.33;;;12.00;;
11141;SDS011;5625;50.122;19.864;2023-04-10T14:37:29;13.30;;;10.60;;
11141;SDS011;5625;50.122;19.864;2023-04-10T14:39:57;15.17;;;11.43;;
11141;SDS011;5625;50.122;19.864;2023-04-10T14:42:25;12.97;;;10.97;;
11141;SDS011;5625;50.122;19.864;2023-04-10T14:44:54;12.23;;;10.10;;
11141;SDS011;5625;50.122;19.864;2023-04-10T14:47:23;15.60;;;12.07;;
11141;SDS011;5625;50.122;19.864;2023-04-10T14:49:52;15.57;;;11.03;;
11141;SDS011;5625;50.122;19.864;2023-04-10T14:52:22;9.03;;;6.83;;
11141;SDS011;5625;50.122;19.864;2023-04-10T14:54:50;9.87;;;6.57;;